createdAt,value
2018-08-07T00:01:29.236Z,1.53
2018-08-07T00:03:57.976Z,1.43
2018-08-07T00:06:26.706Z,1.40
2018-08-07T00:08:55.413Z,1.10
2018-08-07T00:11:24.141Z,1.40
2018-08-07T00:13:52.868Z,1.27
2018-08-07T00:16:21.555Z,1.40
2018-08-07T00:18:50.311Z,1.10
2018-08-07T00:21:19.021Z,1.00
2018-08-07T00:23:47.778Z,1.57
2018-08-07T00:26:16.498Z,1.40
2018-08-07T00:28:45.204Z,1.33
2018-08-07T00:31:13.863Z,1.23
2018-08-07T00:33:42.574Z,1.43
2018-08-07T00:36:11.242Z,1.50
2018-08-07T00:38:39.928Z,1.40
2018-08-07T00:41:08.696Z,1.20
2018-08-07T00:43:37.360Z,1.60
2018-08-07T00:46:06.131Z,1.50
2018-08-07T00:48:34.828Z,1.40
2018-08-07T00:51:03.601Z,1.53
2018-08-07T00:53:32.303Z,1.60
2018-08-07T00:56:01.049Z,1.30
2018-08-07T00:58:29.810Z,1.60
2018-08-07T01:00:58.544Z,1.50
2018-08-07T01:03:27.250Z,1.90
2018-08-07T01:05:55.941Z,1.80
2018-08-07T01:08:24.751Z,1.80
2018-08-07T01:10:53.424Z,2.00
2018-08-07T01:13:22.132Z,1.73
2018-08-07T01:15:50.864Z,1.87
2018-08-07T01:18:19.576Z,1.87
2018-08-07T01:20:48.282Z,1.80
2018-08-07T01:23:17.980Z,1.87
2018-08-07T01:25:46.691Z,2.00
2018-08-07T01:28:15.365Z,2.20
2018-08-07T01:30:44.032Z,2.20
2018-08-07T01:33:12.750Z,2.60
2018-08-07T01:35:41.403Z,2.30
2018-08-07T01:38:10.066Z,1.90
2018-08-07T01:40:38.768Z,1.80
2018-08-07T01:43:07.461Z,1.50
2018-08-07T01:45:36.110Z,1.50
2018-08-07T01:48:05.041Z,1.20
2018-08-07T01:50:33.768Z,1.10
2018-08-07T01:53:02.479Z,1.20
2018-08-07T01:55:31.155Z,1.27
2018-08-07T01:57:59.806Z,1.00
2018-08-07T02:00:28.568Z,1.10
2018-08-07T02:02:57.251Z,1.00
2018-08-07T02:05:25.976Z,1.10
2018-08-07T02:07:54.736Z,1.00
2018-08-07T02:10:23.455Z,1.07
2018-08-07T02:12:52.114Z,1.20
2018-08-07T02:15:20.838Z,1.00
2018-08-07T02:17:49.510Z,1.10
2018-08-07T02:20:18.544Z,1.27
2018-08-07T02:22:47.676Z,0.90
2018-08-07T02:25:17.612Z,1.00
2018-08-07T02:27:46.921Z,1.00
2018-08-07T02:30:16.296Z,0.70
2018-08-07T02:32:44.986Z,1.33
2018-08-07T02:35:14.812Z,0.90
2018-08-07T02:37:44.605Z,0.80
2018-08-07T02:40:13.924Z,1.10
2018-08-07T02:42:43.032Z,0.90
2018-08-07T02:45:13.577Z,0.83
2018-08-07T02:47:43.055Z,1.00
2018-08-07T02:50:13.312Z,1.00
2018-08-07T02:52:42.044Z,0.83
2018-08-07T02:55:11.356Z,0.63
2018-08-07T02:57:40.808Z,0.90
2018-08-07T03:00:17.380Z,1.10
2018-08-07T03:02:46.328Z,1.00
2018-08-07T03:05:15.244Z,1.20
2018-08-07T03:07:44.037Z,0.87
2018-08-07T03:10:12.748Z,1.00
2018-08-07T03:12:41.484Z,1.13
2018-08-07T03:15:14.737Z,1.30
2018-08-07T03:17:44.559Z,0.90
2018-08-07T03:20:13.240Z,1.27
2018-08-07T03:22:41.961Z,1.00
2018-08-07T03:25:12.329Z,1.10
2018-08-07T03:27:42.343Z,1.00
2018-08-07T03:30:13.492Z,1.00
2018-08-07T03:32:42.278Z,0.90
2018-08-07T03:35:11.004Z,1.20
2018-08-07T03:37:40.244Z,1.00
2018-08-07T03:40:10.935Z,1.00
2018-08-07T03:42:39.835Z,1.27
2018-08-07T03:45:09.907Z,0.90
2018-08-07T03:47:38.600Z,0.90
2018-08-07T03:50:08.020Z,1.00
2018-08-07T03:52:36.752Z,0.90
2018-08-07T03:55:07.896Z,1.10
2018-08-07T03:57:36.799Z,0.90
2018-08-07T04:00:08.340Z,1.03
2018-08-07T04:02:37.000Z,1.10
2018-08-07T04:05:06.996Z,0.90
2018-08-07T04:07:35.991Z,0.90
2018-08-07T04:10:05.473Z,1.10
2018-08-07T04:12:34.183Z,0.70
2018-08-07T04:15:02.846Z,0.80
2018-08-07T04:17:31.588Z,0.77
2018-08-07T04:20:00.300Z,0.70
2018-08-07T04:22:28.981Z,0.60
2018-08-07T04:24:57.893Z,0.90
2018-08-07T04:27:26.570Z,0.80
2018-08-07T04:29:55.271Z,1.17
2018-08-07T04:32:23.938Z,1.00
2018-08-07T04:34:52.568Z,0.90
2018-08-07T04:37:21.248Z,0.73
2018-08-07T04:39:49.942Z,1.03
2018-08-07T04:42:18.694Z,0.93
2018-08-07T04:44:47.412Z,1.00
2018-08-07T04:47:16.106Z,0.80
2018-08-07T04:49:44.794Z,0.90
2018-08-07T04:52:13.476Z,0.87
2018-08-07T04:54:42.148Z,0.90
2018-08-07T04:57:10.859Z,0.80
2018-08-07T04:59:39.532Z,0.70
2018-08-07T05:02:08.284Z,0.70
2018-08-07T05:04:37.015Z,0.97
2018-08-07T05:07:06.038Z,0.90
2018-08-07T05:09:34.745Z,0.90
2018-08-07T05:12:03.557Z,0.67
2018-08-07T05:14:32.279Z,0.80
2018-08-07T05:17:00.948Z,0.63
2018-08-07T05:19:29.627Z,0.60
2018-08-07T05:21:58.319Z,0.60
2018-08-07T05:24:26.994Z,0.60
2018-08-07T05:26:55.980Z,0.70
2018-08-07T05:29:24.680Z,0.60
2018-08-07T05:31:53.389Z,0.77
2018-08-07T05:34:22.089Z,0.67
2018-08-07T05:36:50.759Z,0.60
2018-08-07T05:39:19.418Z,0.50
2018-08-07T05:41:48.133Z,0.80
2018-08-07T05:44:16.799Z,0.60
2018-08-07T05:46:45.479Z,0.60
2018-08-07T05:49:14.295Z,0.87
2018-08-07T05:51:42.962Z,0.70
2018-08-07T05:54:11.706Z,0.90
2018-08-07T05:56:40.450Z,0.93
2018-08-07T05:59:09.108Z,1.87
2018-08-07T06:01:38.112Z,1.90
2018-08-07T06:04:07.286Z,1.93
2018-08-07T06:06:35.982Z,1.80
2018-08-07T06:09:06.055Z,1.70
2018-08-07T06:11:34.733Z,1.57
2018-08-07T06:14:03.522Z,1.80
2018-08-07T06:16:32.171Z,2.23
2018-08-07T06:19:01.028Z,1.70
2018-08-07T06:21:29.727Z,2.00
2018-08-07T06:23:58.520Z,2.40
2018-08-07T06:26:27.231Z,2.00
2018-08-07T06:28:55.896Z,2.97
2018-08-07T06:31:24.567Z,2.00
2018-08-07T06:33:53.304Z,2.10
2018-08-07T06:36:22.050Z,2.20
2018-08-07T06:38:50.768Z,1.83
2018-08-07T06:41:19.427Z,2.13
2018-08-07T06:43:48.100Z,2.30
2018-08-07T06:46:16.860Z,2.17
2018-08-07T06:48:45.540Z,2.10
2018-08-07T06:51:14.254Z,2.30
2018-08-07T06:53:42.959Z,2.73
2018-08-07T06:56:12.201Z,2.80
2018-08-07T06:58:40.976Z,2.30
2018-08-07T07:01:09.796Z,1.90
2018-08-07T07:03:38.495Z,2.50
2018-08-07T07:06:07.212Z,2.30
2018-08-07T07:08:35.957Z,2.57
2018-08-07T07:11:04.696Z,2.40
2018-08-07T07:13:33.412Z,2.00
2018-08-07T07:16:02.156Z,2.33
2018-08-07T07:18:30.848Z,2.50
2018-08-07T07:20:59.627Z,2.30
2018-08-07T07:23:28.375Z,1.80
2018-08-07T07:25:57.139Z,1.50
2018-08-07T07:28:26.071Z,1.97
2018-08-07T07:30:54.991Z,2.23
2018-08-07T07:33:23.798Z,1.83
2018-08-07T07:35:52.695Z,1.63
2018-08-07T07:38:21.475Z,1.90
2018-08-07T07:40:50.325Z,1.87
2018-08-07T07:43:19.293Z,1.80
2018-08-07T07:45:48.216Z,2.80
2018-08-07T07:48:17.148Z,2.23
2018-08-07T07:50:45.910Z,1.93
2018-08-07T07:53:14.873Z,2.10
2018-08-07T07:55:43.948Z,1.93
2018-08-07T07:58:12.853Z,1.50
2018-08-07T08:00:41.729Z,1.63
2018-08-07T08:03:10.737Z,1.50
2018-08-07T08:05:39.726Z,1.30
2018-08-07T08:08:08.755Z,1.60
2018-08-07T08:10:46.525Z,1.60
2018-08-07T08:13:15.267Z,1.50
2018-08-07T08:15:44.446Z,1.20
2018-08-07T08:18:13.241Z,1.27
2018-08-07T08:20:42.224Z,1.57
2018-08-07T08:23:11.734Z,1.23
2018-08-07T08:25:40.733Z,1.57
2018-08-07T08:28:09.672Z,1.53
2018-08-07T08:30:38.509Z,1.40
2018-08-07T08:33:07.484Z,1.93
2018-08-07T08:35:36.407Z,1.53
2018-08-07T08:38:05.384Z,1.80
2018-08-07T08:40:34.141Z,1.27
2018-08-07T08:43:03.077Z,1.57
2018-08-07T08:45:31.881Z,1.30
2018-08-07T08:48:00.908Z,1.50
2018-08-07T08:50:29.928Z,1.43
2018-08-07T08:52:58.887Z,1.40
2018-08-07T08:55:27.818Z,1.93
2018-08-07T08:57:56.567Z,1.60
2018-08-07T09:00:32.429Z,1.30
2018-08-07T09:03:02.479Z,2.10
2018-08-07T09:05:31.292Z,1.70
2018-08-07T09:07:59.992Z,2.43
2018-08-07T09:10:29.787Z,1.97
2018-08-07T09:12:59.262Z,1.87
2018-08-07T09:15:27.998Z,1.80
2018-08-07T09:17:56.787Z,2.10
2018-08-07T09:20:28.141Z,2.27
2018-08-07T09:22:57.211Z,2.40
2018-08-07T09:25:28.095Z,2.27
2018-08-07T09:27:57.125Z,2.67
2018-08-07T09:30:28.058Z,2.43
2018-08-07T09:32:57.609Z,2.33
2018-08-07T09:35:27.408Z,2.70
2018-08-07T09:37:57.279Z,2.40
2018-08-07T09:40:26.766Z,2.50
2018-08-07T09:42:56.606Z,2.40
2018-08-07T09:45:34.164Z,2.57
2018-08-07T09:48:04.323Z,2.73
2018-08-07T09:50:33.686Z,2.70
2018-08-07T09:53:02.465Z,3.10
2018-08-07T09:55:31.214Z,3.00
2018-08-07T09:57:59.899Z,3.07
2018-08-07T10:00:34.095Z,3.00
2018-08-07T10:03:05.412Z,2.20
2018-08-07T10:05:35.026Z,2.50
2018-08-07T10:08:03.831Z,2.93
2018-08-07T10:10:33.335Z,2.70
2018-08-07T10:13:02.204Z,3.37
2018-08-07T10:15:32.479Z,2.60
2018-08-07T10:18:01.345Z,2.80
2018-08-07T10:20:30.132Z,3.80
2018-08-07T10:22:59.939Z,2.80
2018-08-07T10:25:30.152Z,2.70
2018-08-07T10:27:59.771Z,2.97
2018-08-07T10:30:28.700Z,2.87
2018-08-07T10:32:58.723Z,2.70
2018-08-07T10:35:28.167Z,2.53
2018-08-07T10:37:56.902Z,2.73
2018-08-07T10:40:28.040Z,2.60
2018-08-07T10:42:56.927Z,2.77
2018-08-07T10:45:26.452Z,2.87
2018-08-07T10:47:55.199Z,2.07
2018-08-07T10:50:29.234Z,2.60
2018-08-07T10:52:59.463Z,2.03
2018-08-07T10:55:28.862Z,2.23
2018-08-07T10:57:59.186Z,2.30
2018-08-07T11:00:31.038Z,2.20
2018-08-07T11:02:59.981Z,2.03
2018-08-07T11:05:29.970Z,2.40
2018-08-07T11:07:58.811Z,2.40
2018-08-07T11:10:27.691Z,2.60
2018-08-07T11:12:57.118Z,2.47
2018-08-07T11:15:31.127Z,2.90
2018-08-07T11:18:00.667Z,2.40
2018-08-07T11:20:30.383Z,2.20
2018-08-07T11:23:00.700Z,2.60
2018-08-07T11:25:30.323Z,2.50
2018-08-07T11:27:59.724Z,2.30
2018-08-07T11:30:29.443Z,2.40
2018-08-07T11:32:59.455Z,2.50
2018-08-07T11:35:28.826Z,2.23
2018-08-07T11:37:59.174Z,2.27
2018-08-07T11:40:27.942Z,2.40
2018-08-07T11:42:57.474Z,2.23
2018-08-07T11:45:28.926Z,2.17
2018-08-07T11:47:57.761Z,1.80
2018-08-07T11:50:27.741Z,2.10
2018-08-07T11:52:56.608Z,1.90
2018-08-07T11:55:25.780Z,2.07
2018-08-07T11:57:56.136Z,1.97
2018-08-07T12:00:28.020Z,2.13
2018-08-07T12:02:56.981Z,2.00
2018-08-07T12:05:25.833Z,1.93
2018-08-07T12:07:55.075Z,1.67
2018-08-07T12:10:24.551Z,1.50
2018-08-07T12:12:53.989Z,1.37
2018-08-07T12:15:24.717Z,1.40
2018-08-07T12:17:53.732Z,1.20
2018-08-07T12:20:22.451Z,1.40
2018-08-07T12:22:51.212Z,1.40
2018-08-07T12:25:20.600Z,1.30
2018-08-07T12:27:50.733Z,1.10
2018-08-07T12:30:27.803Z,1.00
2018-08-07T12:32:56.975Z,1.43
2018-08-07T12:35:25.897Z,1.10
2018-08-07T12:37:54.748Z,1.50
2018-08-07T12:40:25.424Z,1.20
2018-08-07T12:42:56.947Z,1.13
2018-08-07T12:45:27.504Z,1.47
2018-08-07T12:47:56.405Z,1.47
2018-08-07T12:50:25.360Z,1.40
2018-08-07T12:52:54.153Z,1.40
2018-08-07T12:55:23.647Z,1.30
2018-08-07T12:57:52.877Z,1.10
2018-08-07T13:00:23.884Z,1.20
2018-08-07T13:02:52.667Z,1.10
2018-08-07T13:05:21.391Z,1.20
2018-08-07T13:07:50.115Z,1.30
2018-08-07T13:10:20.065Z,1.10
2018-08-07T13:12:49.405Z,1.37
2018-08-07T13:15:19.250Z,1.53
2018-08-07T13:17:48.411Z,1.20
2018-08-07T13:20:17.292Z,1.20
2018-08-07T13:22:46.791Z,0.90
2018-08-07T13:25:17.920Z,1.13
2018-08-07T13:27:46.643Z,0.83
2018-08-07T13:30:20.500Z,0.90
2018-08-07T13:32:49.284Z,0.83
2018-08-07T13:35:18.380Z,0.90
2018-08-07T13:37:48.597Z,0.90
2018-08-07T13:40:18.593Z,1.00
2018-08-07T13:42:47.673Z,1.00
2018-08-07T13:45:18.984Z,0.90
2018-08-07T13:47:47.794Z,0.77
2018-08-07T13:50:18.866Z,0.83
2018-08-07T13:52:48.065Z,0.60
2018-08-07T13:55:18.456Z,0.63
2018-08-07T13:57:47.617Z,0.70
2018-08-07T14:00:20.449Z,0.70
2018-08-07T14:02:49.824Z,0.60
2018-08-07T14:05:19.588Z,0.70
2018-08-07T14:07:49.467Z,0.90
2018-08-07T14:10:18.892Z,1.00
2018-08-07T14:12:47.628Z,0.80
2018-08-07T14:15:17.131Z,0.90
2018-08-07T14:17:46.506Z,0.90
2018-08-07T14:20:16.336Z,0.60
2018-08-07T14:22:45.167Z,1.00
2018-08-07T14:25:16.564Z,0.90
2018-08-07T14:27:46.602Z,0.80
2018-08-07T14:30:19.195Z,0.73
2018-08-07T14:32:48.024Z,0.53
2018-08-07T14:35:16.738Z,1.07
2018-08-07T14:37:46.343Z,0.80
2018-08-07T14:40:17.299Z,0.63
2018-08-07T14:42:47.709Z,0.80
2018-08-07T14:45:18.719Z,0.70
2018-08-07T14:47:48.293Z,0.87
2018-08-07T14:50:22.333Z,0.73
2018-08-07T14:52:51.157Z,0.63
2018-08-07T14:55:19.972Z,0.90
2018-08-07T14:57:48.785Z,1.03
2018-08-07T15:00:20.747Z,0.90
2018-08-07T15:02:49.564Z,0.80
2018-08-07T15:05:18.276Z,0.83
2018-08-07T15:07:47.209Z,0.83
2018-08-07T15:10:19.935Z,0.60
2018-08-07T15:12:48.643Z,0.70
2018-08-07T15:15:18.883Z,0.90
2018-08-07T15:17:47.653Z,0.87
2018-08-07T15:20:18.016Z,0.70
2018-08-07T15:22:48.612Z,0.90
2018-08-07T15:25:17.932Z,0.80
2018-08-07T15:27:46.717Z,1.07
2018-08-07T15:30:17.019Z,0.80
2018-08-07T15:32:46.335Z,1.00
2018-08-07T15:35:16.145Z,0.77
2018-08-07T15:37:45.302Z,0.80
2018-08-07T15:40:14.450Z,0.90
2018-08-07T15:42:43.913Z,0.83
2018-08-07T15:45:13.481Z,0.80
2018-08-07T15:47:42.235Z,0.80
2018-08-07T15:50:13.821Z,0.90
2018-08-07T15:52:43.827Z,0.90
2018-08-07T15:55:14.608Z,1.00
2018-08-07T15:57:43.383Z,0.93
2018-08-07T16:00:20.527Z,0.87
2018-08-07T16:02:49.345Z,1.70
2018-08-07T16:05:18.421Z,1.10
2018-08-07T16:07:47.532Z,1.00
2018-08-07T16:10:17.410Z,1.00
2018-08-07T16:12:47.179Z,0.97
2018-08-07T16:15:15.875Z,0.90
2018-08-07T16:17:45.780Z,0.93
2018-08-07T16:20:14.519Z,1.10
2018-08-07T16:22:43.664Z,1.17
2018-08-07T16:25:13.870Z,1.20
2018-08-07T16:27:43.696Z,1.00
2018-08-07T16:30:16.140Z,1.10
2018-08-07T16:32:44.807Z,0.93
2018-08-07T16:35:14.224Z,1.27
2018-08-07T16:37:43.379Z,1.00
2018-08-07T16:40:15.968Z,1.37
2018-08-07T16:42:44.971Z,1.03
2018-08-07T16:45:16.046Z,1.03
2018-08-07T16:47:44.911Z,1.10
2018-08-07T16:50:16.469Z,1.10
2018-08-07T16:52:45.227Z,0.80
2018-08-07T16:55:14.023Z,1.13
2018-08-07T16:57:43.218Z,1.10
2018-08-07T17:00:12.973Z,0.93
2018-08-07T17:02:41.768Z,1.07
2018-08-07T17:05:13.273Z,1.30
2018-08-07T17:07:42.424Z,1.30
2018-08-07T17:10:16.204Z,0.80
2018-08-07T17:12:45.206Z,1.00
2018-08-07T17:15:14.096Z,1.50
2018-08-07T17:17:43.620Z,1.10
2018-08-07T17:20:15.098Z,1.27
2018-08-07T17:22:44.141Z,1.30
2018-08-07T17:25:14.988Z,1.20
2018-08-07T17:27:44.667Z,1.30
2018-08-07T17:30:16.805Z,1.17
2018-08-07T17:32:45.914Z,1.10
2018-08-07T17:35:17.230Z,1.20
2018-08-07T17:37:46.089Z,1.00
2018-08-07T17:40:16.895Z,1.50
2018-08-07T17:42:45.719Z,1.20
2018-08-07T17:45:14.663Z,1.40
2018-08-07T17:47:43.521Z,1.50
2018-08-07T17:50:14.828Z,1.40
2018-08-07T17:52:44.279Z,1.40
2018-08-07T17:55:13.266Z,1.23
2018-08-07T17:57:42.286Z,1.20
2018-08-07T18:00:19.099Z,1.50
2018-08-07T18:02:47.880Z,1.50
2018-08-07T18:05:16.682Z,1.20
2018-08-07T18:07:46.930Z,1.17
2018-08-07T18:12:50.844Z,1.10
2018-08-07T18:15:20.539Z,1.20
2018-08-07T18:17:49.762Z,1.13
2018-08-07T18:20:20.550Z,1.30
2018-08-07T18:22:49.308Z,1.20
2018-08-07T18:25:18.081Z,1.10
2018-08-07T18:27:46.816Z,1.20
2018-08-07T18:30:17.332Z,1.30
2018-08-07T18:32:47.086Z,0.77
2018-08-07T18:35:17.515Z,1.00
2018-08-07T18:37:46.295Z,0.90
2018-08-07T18:40:15.046Z,1.03
2018-08-07T18:42:43.790Z,1.20
2018-08-07T18:45:46.432Z,1.20
2018-08-07T18:48:15.846Z,0.80
2018-08-07T18:50:44.709Z,0.83
2018-08-07T18:53:13.567Z,0.90
2018-08-07T18:55:42.399Z,0.80
2018-08-07T18:58:11.263Z,1.07
2018-08-07T19:00:40.114Z,0.70
2018-08-07T19:03:08.822Z,0.83
2018-08-07T19:05:37.511Z,0.80
2018-08-07T19:08:06.255Z,1.13
2018-08-07T19:10:35.025Z,0.90
2018-08-07T19:13:03.788Z,0.70
2018-08-07T19:15:32.595Z,0.87
2018-08-07T19:18:01.270Z,0.83
2018-08-07T19:20:30.073Z,0.73
2018-08-07T19:22:58.795Z,0.80
2018-08-07T19:25:27.543Z,0.83
2018-08-07T19:27:56.272Z,0.90
2018-08-07T19:30:25.948Z,1.10
2018-08-07T19:32:54.674Z,0.93
2018-08-07T19:35:23.446Z,0.97
2018-08-07T19:37:52.175Z,0.90
2018-08-07T19:40:21.099Z,1.37
2018-08-07T19:42:50.636Z,1.10
2018-08-07T19:45:19.566Z,1.20
2018-08-07T19:47:48.318Z,1.00
2018-08-07T19:50:18.724Z,1.13
2018-08-07T19:52:47.414Z,1.03
2018-08-07T19:55:18.008Z,1.20
2018-08-07T19:57:46.701Z,0.87
2018-08-07T20:00:19.272Z,0.80
2018-08-07T20:02:49.335Z,1.10
2018-08-07T20:05:18.071Z,1.13
2018-08-07T20:07:46.876Z,0.93
2018-08-07T20:10:16.690Z,1.03
2018-08-07T20:12:45.489Z,1.20
2018-08-07T20:15:19.268Z,0.97
2018-08-07T20:17:48.511Z,0.97
2018-08-07T20:20:17.256Z,1.10
2018-08-07T20:22:46.034Z,1.10
2018-08-07T20:25:14.731Z,1.37
2018-08-07T20:27:43.435Z,1.17
2018-08-07T20:30:15.591Z,0.90
2018-08-07T20:32:45.007Z,0.80
2018-08-07T20:35:13.743Z,0.80
2018-08-07T20:37:42.441Z,1.00
2018-08-07T20:40:19.127Z,0.87
2018-08-07T20:42:47.824Z,0.87
2018-08-07T20:45:17.232Z,0.83
2018-08-07T20:47:45.883Z,0.70
2018-08-07T20:50:17.252Z,1.13
2018-08-07T20:52:46.203Z,1.17
2018-08-07T20:55:15.265Z,0.90
2018-08-07T20:57:44.900Z,0.80
2018-08-07T21:00:20.748Z,0.80
2018-08-07T21:02:49.674Z,1.00
2018-08-07T21:05:18.524Z,0.70
2018-08-07T21:07:47.300Z,0.93
2018-08-07T21:10:18.575Z,1.00
2018-08-07T21:12:47.359Z,0.80
2018-08-07T21:15:16.077Z,1.00
2018-08-07T21:17:44.738Z,0.73
2018-08-07T21:20:15.677Z,1.17
2018-08-07T21:22:44.639Z,1.10
2018-08-07T21:25:15.287Z,1.03
2018-08-07T21:27:44.464Z,0.90
2018-08-07T21:30:14.951Z,1.13
2018-08-07T21:32:43.703Z,1.00
2018-08-07T21:35:12.739Z,1.10
2018-08-07T21:37:41.859Z,1.07
2018-08-07T21:40:14.327Z,0.80
2018-08-07T21:42:43.347Z,0.87
2018-08-07T21:45:12.131Z,1.10
2018-08-07T21:47:40.881Z,1.13
2018-08-07T21:50:13.148Z,1.10
2018-08-07T21:52:41.911Z,1.10
2018-08-07T21:55:12.960Z,1.10
2018-08-07T21:57:41.844Z,1.10
2018-08-07T22:00:13.280Z,1.30
2018-08-07T22:02:42.941Z,1.00
2018-08-07T22:05:11.760Z,1.33
2018-08-07T22:07:40.712Z,0.80
2018-08-07T22:10:15.713Z,1.10
2018-08-07T22:12:44.701Z,0.97
2018-08-07T22:15:14.262Z,1.17
2018-08-07T22:17:43.036Z,1.10
2018-08-07T22:20:12.236Z,1.30
2018-08-07T22:22:40.965Z,1.20
2018-08-07T22:25:10.307Z,0.90
2018-08-07T22:27:39.031Z,1.10
2018-08-07T22:30:09.823Z,1.07
2018-08-07T22:32:38.507Z,0.97
2018-08-07T22:35:08.388Z,0.93
2018-08-07T22:37:37.389Z,1.10
2018-08-07T22:40:06.464Z,1.00
2018-08-07T22:42:35.608Z,1.00
2018-08-07T22:45:04.923Z,1.20
2018-08-07T22:47:33.632Z,1.07
2018-08-07T22:50:02.277Z,1.07
2018-08-07T22:52:30.985Z,1.23
2018-08-07T22:54:59.656Z,0.97
2018-08-07T22:57:28.293Z,1.50
2018-08-07T22:59:57.056Z,1.10
2018-08-07T23:02:25.703Z,1.40
2018-08-07T23:04:54.368Z,1.37
2018-08-07T23:07:23.031Z,1.00
2018-08-07T23:09:51.711Z,1.33
2018-08-07T23:12:20.378Z,1.20
2018-08-07T23:14:49.170Z,1.43
2018-08-07T23:17:17.895Z,1.30
2018-08-07T23:19:46.559Z,1.17
2018-08-07T23:22:15.227Z,1.27
2018-08-07T23:24:44.012Z,1.60
2018-08-07T23:27:12.668Z,1.30
2018-08-07T23:29:41.341Z,1.50
2018-08-07T23:32:10.064Z,1.27
2018-08-07T23:34:38.742Z,1.30
2018-08-07T23:37:07.408Z,1.60
2018-08-07T23:39:36.075Z,1.40
2018-08-07T23:42:04.771Z,1.70
2018-08-07T23:44:33.459Z,1.70
2018-08-07T23:47:02.212Z,1.50
2018-08-07T23:49:30.879Z,1.70
2018-08-07T23:51:59.557Z,1.43
2018-08-07T23:54:28.208Z,1.13
2018-08-07T23:56:56.965Z,1.50
2018-08-07T23:59:25.693Z,1.07
